Time;durP1;ratioP1;P1;durP2;ratioP2;P2;SDS_P1;SDS_P2;PMS_P1;PMS_P2;Temp;Humidity;BMP_temperature;BMP_pressure;BME280_temperature;BME280_humidity;BME280_pressure;Samples;Min_cycle;Max_cycle;Signal;HPM_P1;HPM_P2
2024/03/06 00:01:53;;;;;;;15.30;8.07;;;5.30;99.90;;;;;;5035449;28;20107;-72
2024/03/06 00:04:19;;;;;;;13.43;8.45;;;5.30;99.90;;;;;;5053391;28;20493;-71
2024/03/06 00:06:44;;;;;;;15.40;7.93;;;5.30;99.90;;;;;;5053657;28;20032;-71
2024/03/06 00:09:10;;;;;;;16.20;8.68;;;5.30;99.90;;;;;;5053033;28;20083;-71
2024/03/06 00:11:36;;;;;;;19.15;11.05;;;5.20;99.90;;;;;;5035196;28;20041;-72
2024/03/06 00:14:02;;;;;;;14.55;8.60;;;5.30;99.90;;;;;;5035625;28;20493;-71
2024/03/06 00:16:28;;;;;;;12.20;8.43;;;5.30;99.90;;;;;;5035395;28;20041;-71
2024/03/06 00:18:54;;;;;;;15.13;8.35;;;5.30;99.90;;;;;;5053027;28;20039;-72
2024/03/06 00:21:19;;;;;;;13.35;7.93;;;5.30;99.90;;;;;;5035003;28;20045;-71
2024/03/06 00:23:46;;;;;;;12.85;7.45;;;5.30;99.90;;;;;;5035613;28;20504;-71
2024/03/06 00:26:12;;;;;;;13.77;8.35;;;5.30;99.90;;;;;;5019044;28;20076;-71
2024/03/06 00:28:38;;;;;;;16.02;7.40;;;5.30;99.90;;;;;;5035142;28;20041;-72
2024/03/06 00:31:07;;;;;;;13.52;8.02;;;5.30;99.90;;;;;;5034667;28;20032;-71
2024/03/06 00:33:33;;;;;;;15.07;8.52;;;5.30;99.90;;;;;;5035219;28;20033;-71
2024/03/06 00:35:58;;;;;;;13.70;7.50;;;5.30;99.90;;;;;;5052984;28;20078;-71
2024/03/06 00:38:24;;;;;;;12.15;8.70;;;5.30;99.90;;;;;;5052245;28;20060;-71
2024/03/06 00:40:50;;;;;;;10.98;7.55;;;5.30;99.90;;;;;;5052784;28;20029;-71
2024/03/06 00:43:15;;;;;;;13.68;8.38;;;5.30;99.90;;;;;;5052605;28;20035;-71
2024/03/06 00:45:41;;;;;;;14.52;7.32;;;5.30;99.90;;;;;;5053000;28;20041;-71
2024/03/06 00:48:07;;;;;;;12.75;8.43;;;5.30;99.90;;;;;;5052931;28;20040;-71
2024/03/06 00:50:33;;;;;;;15.63;7.82;;;5.30;99.90;;;;;;5052618;28;20036;-71
2024/03/06 00:52:59;;;;;;;12.85;7.43;;;5.30;99.90;;;;;;5034597;28;20431;-71
2024/03/06 00:55:24;;;;;;;13.80;7.65;;;5.30;99.90;;;;;;5034883;28;20045;-71
2024/03/06 00:57:50;;;;;;;14.00;7.68;;;5.30;99.90;;;;;;5034455;28;20045;-71
2024/03/06 01:00:16;;;;;;;14.27;8.00;;;5.30;99.90;;;;;;5034489;28;20041;-71
2024/03/06 01:02:42;;;;;;;14.23;8.75;;;5.20;99.90;;;;;;5052032;28;20037;-71
2024/03/06 01:05:09;;;;;;;16.65;8.02;;;5.30;99.90;;;;;;5034458;28;20385;-71
2024/03/06 01:07:37;;;;;;;11.10;6.78;;;5.30;99.90;;;;;;5034178;28;20083;-71
2024/03/06 01:10:03;;;;;;;11.43;7.53;;;5.30;99.90;;;;;;5034597;28;20048;-71
2024/03/06 01:12:29;;;;;;;16.60;7.65;;;5.30;99.90;;;;;;5033892;28;20458;-71
2024/03/06 01:14:55;;;;;;;13.20;7.70;;;5.30;99.90;;;;;;5034419;28;20137;-71
2024/03/06 01:17:21;;;;;;;14.75;9.27;;;5.20;99.90;;;;;;5052348;28;20111;-71
2024/03/06 01:19:46;;;;;;;12.38;7.80;;;5.30;99.90;;;;;;5051888;28;20037;-71
2024/03/06 01:22:15;;;;;;;11.60;7.63;;;5.20;99.90;;;;;;5051822;28;20040;-72
2024/03/06 01:24:41;;;;;;;16.95;8.00;;;5.20;99.90;;;;;;5052030;28;20671;-72
2024/03/06 01:27:06;;;;;;;13.57;7.30;;;5.20;99.90;;;;;;5034021;28;20041;-71
2024/03/06 01:29:32;;;;;;;15.07;7.50;;;5.30;99.90;;;;;;5047912;28;20112;-72
2024/03/06 01:31:58;;;;;;;17.42;8.05;;;5.20;99.90;;;;;;5050394;28;20099;-71
2024/03/06 01:34:24;;;;;;;15.80;7.88;;;5.30;99.90;;;;;;5033056;28;20101;-71
2024/03/06 01:36:50;;;;;;;12.88;8.43;;;5.30;99.90;;;;;;5051315;28;20041;-71
2024/03/06 01:39:16;;;;;;;15.25;8.38;;;5.30;99.90;;;;;;5051315;28;20378;-72
2024/03/06 01:41:50;;;;;;;18.48;7.57;;;5.30;99.90;;;;;;5051204;28;20115;-71
2024/03/06 01:44:17;;;;;;;14.48;8.50;;;5.20;99.90;;;;;;5051963;28;20041;-71
2024/03/06 01:46:44;;;;;;;13.18;7.88;;;5.20;99.90;;;;;;5051748;28;20046;-71
2024/03/06 01:49:13;;;;;;;14.98;7.70;;;5.20;99.90;;;;;;5051123;28;20493;-71
2024/03/06 01:51:40;;;;;;;20.20;8.10;;;5.20;99.90;;;;;;5051169;28;20037;-72
2024/03/06 01:54:06;;;;;;;14.40;8.00;;;5.20;99.90;;;;;;5051242;28;20111;-71
2024/03/06 01:56:35;;;;;;;16.30;8.23;;;5.20;99.90;;;;;;5051474;28;20041;-71
2024/03/06 01:59:02;;;;;;;13.90;8.32;;;5.20;99.90;;;;;;5051371;28;20123;-72
2024/03/06 02:01:28;;;;;;;13.80;7.53;;;5.20;99.90;;;;;;5051122;28;20052;-72
2024/03/06 02:03:54;;;;;;;13.50;7.95;;;5.20;99.90;;;;;;5051442;28;20036;-72
2024/03/06 02:06:21;;;;;;;14.50;8.18;;;5.20;99.90;;;;;;5051552;28;20033;-71
2024/03/06 02:08:46;;;;;;;13.82;7.63;;;5.10;99.90;;;;;;5033034;28;20037;-71
2024/03/06 02:11:13;;;;;;;14.77;8.07;;;5.20;99.90;;;;;;5033069;28;20041;-71
2024/03/06 02:13:43;;;;;;;15.00;7.88;;;5.10;99.90;;;;;;5051356;28;20401;-71
2024/03/06 02:16:09;;;;;;;12.82;7.68;;;5.20;99.90;;;;;;5033707;28;20036;-71
2024/03/06 02:18:35;;;;;;;14.82;8.15;;;5.20;99.90;;;;;;5033143;28;20033;-71
2024/03/06 02:21:00;;;;;;;13.07;7.53;;;5.20;99.90;;;;;;5050955;28;20447;-71
2024/03/06 02:23:26;;;;;;;12.70;8.10;;;5.10;99.90;;;;;;5051153;28;20033;-72
2024/03/06 02:25:52;;;;;;;12.02;7.68;;;5.10;99.90;;;;;;5051174;28;20048;-71
2024/03/06 02:28:17;;;;;;;13.25;7.70;;;5.10;99.90;;;;;;5032949;28;20102;-71
2024/03/06 02:30:43;;;;;;;15.90;8.48;;;5.10;99.90;;;;;;5033637;28;20041;-71
2024/03/06 02:33:09;;;;;;;12.85;7.55;;;5.10;99.90;;;;;;5050710;28;20512;-71
2024/03/06 02:35:35;;;;;;;14.80;8.63;;;5.10;99.90;;;;;;5051178;28;20060;-71
2024/03/06 02:38:04;;;;;;;16.50;9.05;;;5.10;99.90;;;;;;5050908;28;20033;-71
2024/03/06 02:40:30;;;;;;;15.35;8.75;;;5.10;99.90;;;;;;5051164;28;20033;-71
2024/03/06 02:42:56;;;;;;;14.35;8.15;;;5.00;99.90;;;;;;5032907;28;20041;-71
2024/03/06 02:45:22;;;;;;;22.83;10.73;;;5.00;99.90;;;;;;5050874;28;20122;-71
2024/03/06 02:47:48;;;;;;;14.88;8.35;;;5.00;99.90;;;;;;5050470;28;20037;-71
2024/03/06 02:50:13;;;;;;;16.02;8.73;;;5.00;99.90;;;;;;5032983;28;20037;-71
2024/03/06 02:52:39;;;;;;;15.45;8.00;;;5.00;99.90;;;;;;5050397;28;20045;-72
2024/03/06 02:55:06;;;;;;;14.82;8.20;;;5.00;99.90;;;;;;5050988;28;20509;-71
2024/03/06 02:57:31;;;;;;;13.95;7.47;;;5.00;99.90;;;;;;5050867;28;20033;-71
2024/03/06 02:59:58;;;;;;;17.95;9.10;;;5.00;99.90;;;;;;5050898;28;20033;-71
2024/03/06 03:02:24;;;;;;;15.68;9.27;;;5.00;99.90;;;;;;5050598;28;20043;-71
2024/03/06 03:04:53;;;;;;;14.02;8.55;;;5.00;99.90;;;;;;5035606;28;20048;-72
2024/03/06 03:07:23;;;;;;;15.32;9.63;;;4.90;99.90;;;;;;5037126;28;20591;-71
2024/03/06 03:09:49;;;;;;;12.90;8.77;;;4.90;99.90;;;;;;5054499;28;20041;-72
2024/03/06 03:12:14;;;;;;;15.05;8.70;;;4.90;99.90;;;;;;5036436;28;20033;-72
2024/03/06 03:14:41;;;;;;;13.50;8.65;;;4.90;99.90;;;;;;5054802;28;20128;-71
2024/03/06 03:17:07;;;;;;;18.15;8.93;;;4.90;99.90;;;;;;5036753;28;20083;-71
2024/03/06 03:19:33;;;;;;;16.67;8.98;;;4.90;99.90;;;;;;5036195;28;20098;-71
2024/03/06 03:21:59;;;;;;;16.67;9.80;;;4.90;99.90;;;;;;5053988;28;20048;-71
2024/03/06 03:24:27;;;;;;;16.45;10.38;;;4.90;99.90;;;;;;5054601;28;20071;-71
2024/03/06 03:26:53;;;;;;;15.98;9.10;;;4.90;99.90;;;;;;5054437;28;20039;-71
2024/03/06 03:29:20;;;;;;;15.82;8.52;;;4.90;99.90;;;;;;5054031;28;20107;-72
2024/03/06 03:31:46;;;;;;;16.60;9.32;;;4.90;99.90;;;;;;5036157;28;20068;-71
2024/03/06 03:34:12;;;;;;;17.55;9.23;;;5.00;99.90;;;;;;5036333;28;20501;-71
2024/03/06 03:36:44;;;;;;;14.60;9.32;;;4.90;99.90;;;;;;5036019;28;20442;-71
2024/03/06 03:39:15;;;;;;;15.82;9.32;;;4.90;99.90;;;;;;5035890;28;20120;-71
2024/03/06 03:41:48;;;;;;;15.52;8.98;;;4.80;99.90;;;;;;5053771;28;20045;-71
2024/03/06 03:44:15;;;;;;;16.95;9.82;;;4.90;99.90;;;;;;5054030;28;20163;-71
2024/03/06 03:46:40;;;;;;;16.00;9.15;;;4.90;99.90;;;;;;5036060;28;20048;-71
2024/03/06 03:49:06;;;;;;;21.98;9.93;;;4.90;99.90;;;;;;5035607;28;20041;-71
2024/03/06 03:51:32;;;;;;;16.67;9.75;;;4.90;99.90;;;;;;5053637;28;20117;-72
2024/03/06 03:53:57;;;;;;;14.80;8.55;;;4.90;99.90;;;;;;5053917;28;20040;-71
2024/03/06 03:56:23;;;;;;;20.45;10.48;;;4.90;99.90;;;;;;5053739;28;20083;-71
2024/03/06 03:58:48;;;;;;;17.75;10.35;;;4.80;99.90;;;;;;5053540;28;20037;-71
2024/03/06 04:01:14;;;;;;;17.98;9.85;;;4.90;99.90;;;;;;5053044;28;20308;-72
2024/03/06 04:03:42;;;;;;;15.70;9.18;;;4.90;99.90;;;;;;5053716;28;20067;-72
2024/03/06 04:06:08;;;;;;;18.13;9.48;;;4.90;99.90;;;;;;5053787;28;20043;-71
2024/03/06 04:08:34;;;;;;;15.32;9.40;;;4.90;99.90;;;;;;5034915;28;20045;-71
2024/03/06 04:11:00;;;;;;;19.10;10.48;;;4.90;99.90;;;;;;5035272;28;20047;-71
2024/03/06 04:13:26;;;;;;;14.63;9.38;;;4.90;99.90;;;;;;5053488;28;20116;-71
2024/03/06 04:15:51;;;;;;;16.83;10.63;;;4.90;99.90;;;;;;5034698;28;20041;-72
2024/03/06 04:18:17;;;;;;;17.80;9.52;;;4.80;99.90;;;;;;5035486;28;20431;-71
2024/03/06 04:20:43;;;;;;;15.85;9.20;;;4.90;99.90;;;;;;5053529;28;20094;-71
2024/03/06 04:23:08;;;;;;;14.85;9.88;;;4.80;99.90;;;;;;5053055;28;20087;-71
2024/03/06 04:25:34;;;;;;;19.10;10.23;;;4.80;99.90;;;;;;5053216;28;20520;-71
2024/03/06 04:28:01;;;;;;;18.40;10.02;;;4.80;99.90;;;;;;5053193;28;20413;-71
2024/03/06 04:30:26;;;;;;;16.38;9.82;;;4.80;99.90;;;;;;5018371;28;20037;-71
2024/03/06 04:32:52;;;;;;;17.27;10.27;;;4.80;99.90;;;;;;5052951;28;20422;-71
2024/03/06 04:35:17;;;;;;;17.33;10.82;;;4.80;99.90;;;;;;5053408;28;20105;-72
2024/03/06 04:37:43;;;;;;;20.85;9.45;;;4.80;99.90;;;;;;5053823;28;20044;-71
2024/03/06 04:40:10;;;;;;;20.48;10.25;;;4.80;99.90;;;;;;5035817;28;20072;-72
2024/03/06 04:42:36;;;;;;;15.07;9.20;;;4.80;99.90;;;;;;5053075;28;20045;-72
2024/03/06 04:45:19;;;;;;;19.75;10.63;;;4.80;99.90;;;;;;5053641;28;20048;-71
2024/03/06 04:47:45;;;;;;;17.92;9.02;;;4.80;99.90;;;;;;5052986;28;20033;-71
2024/03/06 04:50:15;;;;;;;22.92;10.35;;;4.70;99.90;;;;;;5035010;28;20136;-71
2024/03/06 04:52:41;;;;;;;18.08;9.80;;;4.70;99.90;;;;;;5052698;28;20049;-71
2024/03/06 04:55:09;;;;;;;15.13;9.63;;;4.80;99.90;;;;;;5035209;28;20126;-71
2024/03/06 04:57:37;;;;;;;19.55;11.70;;;4.80;99.90;;;;;;5052668;28;20564;-71
2024/03/06 05:00:05;;;;;;;17.98;10.50;;;4.80;99.90;;;;;;5034549;28;20124;-72
2024/03/06 05:02:34;;;;;;;16.85;10.02;;;4.70;99.90;;;;;;5052342;28;20120;-71
2024/03/06 05:05:01;;;;;;;16.20;9.60;;;4.80;99.90;;;;;;5052561;28;20128;-72
2024/03/06 05:07:33;;;;;;;17.65;10.15;;;4.80;99.90;;;;;;5034531;28;20696;-72
2024/03/06 05:10:00;;;;;;;20.77;11.25;;;4.80;99.90;;;;;;5052364;28;20051;-72
2024/03/06 05:12:26;;;;;;;17.88;10.45;;;4.80;99.90;;;;;;5034201;28;20454;-71
2024/03/06 05:14:53;;;;;;;20.23;10.70;;;4.80;99.90;;;;;;5034645;28;20040;-72
2024/03/06 05:17:19;;;;;;;19.15;10.38;;;4.80;99.90;;;;;;5034644;28;20041;-71
2024/03/06 05:19:47;;;;;;;15.55;10.05;;;4.80;99.90;;;;;;5051983;28;20413;-72
2024/03/06 05:22:13;;;;;;;18.30;11.40;;;4.80;99.90;;;;;;5033822;28;20563;-71
2024/03/06 05:24:39;;;;;;;18.95;10.82;;;4.80;99.90;;;;;;5034237;28;20090;-72
2024/03/06 05:27:05;;;;;;;19.35;10.77;;;4.80;99.90;;;;;;5017147;28;20041;-72
2024/03/06 05:29:30;;;;;;;20.08;10.13;;;4.80;99.90;;;;;;5034042;28;20048;-71
2024/03/06 05:31:56;;;;;;;18.42;10.02;;;4.80;99.90;;;;;;5033826;28;20037;-72
2024/03/06 05:34:24;;;;;;;19.92;10.52;;;4.90;99.90;;;;;;5034356;28;20041;-71
2024/03/06 05:36:50;;;;;;;19.00;10.98;;;4.80;99.90;;;;;;5034376;28;20511;-71
2024/03/06 05:39:17;;;;;;;17.20;10.52;;;4.80;99.90;;;;;;5016990;28;20131;-72
2024/03/06 05:41:43;;;;;;;16.77;9.93;;;4.80;99.90;;;;;;5051511;28;20048;-71
2024/03/06 05:44:10;;;;;;;20.23;10.30;;;4.80;99.90;;;;;;5033808;28;20037;-71
2024/03/06 05:46:35;;;;;;;22.17;11.82;;;4.90;99.90;;;;;;5033915;28;20036;-71
2024/03/06 05:49:02;;;;;;;21.10;11.40;;;4.90;99.90;;;;;;5051564;28;20035;-71
2024/03/06 05:51:28;;;;;;;19.25;10.48;;;4.90;99.90;;;;;;5051229;28;20040;-71
2024/03/06 05:53:53;;;;;;;15.77;10.43;;;4.80;99.90;;;;;;5051642;28;20029;-71
2024/03/06 05:56:19;;;;;;;18.88;10.20;;;4.90;99.90;;;;;;5033893;28;20033;-71
2024/03/06 05:58:46;;;;;;;17.77;10.60;;;4.90;99.90;;;;;;5033496;28;20044;-72
2024/03/06 06:01:15;;;;;;;17.95;10.13;;;4.90;99.90;;;;;;5051235;28;20052;-72
2024/03/06 06:03:41;;;;;;;19.33;11.90;;;4.90;99.90;;;;;;5051672;28;20550;-71
2024/03/06 06:06:08;;;;;;;15.43;10.07;;;4.90;99.90;;;;;;5033334;28;20051;-71
2024/03/06 06:08:35;;;;;;;23.23;10.98;;;4.90;99.90;;;;;;5050896;28;20091;-71
2024/03/06 06:11:02;;;;;;;17.23;9.75;;;4.80;99.90;;;;;;5033091;28;20116;-71
2024/03/06 06:13:29;;;;;;;17.98;10.77;;;4.90;99.90;;;;;;5033723;28;20029;-72
2024/03/06 06:15:54;;;;;;;18.67;11.10;;;4.90;99.90;;;;;;5051526;28;20044;-71
2024/03/06 06:18:20;;;;;;;15.68;10.05;;;4.90;99.90;;;;;;5051004;28;20048;-71
2024/03/06 06:20:46;;;;;;;20.27;11.02;;;4.90;99.90;;;;;;5051181;28;20044;-71
2024/03/06 06:23:12;;;;;;;19.15;11.20;;;4.80;99.90;;;;;;5032965;28;20037;-71
2024/03/06 06:25:37;;;;;;;21.63;11.45;;;4.80;99.90;;;;;;5033286;28;20048;-71
2024/03/06 06:28:03;;;;;;;16.13;10.25;;;4.90;99.90;;;;;;5033245;28;20040;-72
2024/03/06 06:30:30;;;;;;;18.98;10.88;;;4.90;99.90;;;;;;5033113;28;20052;-72
2024/03/06 06:32:55;;;;;;;21.33;12.10;;;4.90;99.90;;;;;;5050435;28;20040;-72
2024/03/06 06:35:22;;;;;;;19.08;11.77;;;4.90;99.90;;;;;;5032848;28;20386;-71
2024/03/06 06:37:48;;;;;;;18.63;11.55;;;4.90;99.90;;;;;;5050988;28;20045;-71
2024/03/06 06:40:13;;;;;;;24.00;11.88;;;5.00;99.90;;;;;;5037023;28;20098;-71
2024/03/06 06:42:49;;;;;;;21.17;10.57;;;4.90;99.90;;;;;;5054698;28;20129;-72
2024/03/06 06:45:15;;;;;;;18.25;10.93;;;4.90;99.90;;;;;;5054991;28;20033;-71
2024/03/06 06:47:41;;;;;;;18.80;11.77;;;5.00;99.90;;;;;;5055077;28;20515;-71
2024/03/06 06:50:08;;;;;;;19.50;12.07;;;5.00;99.90;;;;;;5054467;28;20029;-72
2024/03/06 06:52:35;;;;;;;20.75;11.75;;;4.90;99.90;;;;;;5037073;28;20424;-72
2024/03/06 06:55:01;;;;;;;22.50;11.05;;;5.00;99.90;;;;;;5037002;28;20041;-71
2024/03/06 06:57:26;;;;;;;18.88;11.02;;;4.90;99.90;;;;;;5054976;28;20041;-72
2024/03/06 06:59:52;;;;;;;20.45;11.30;;;4.90;99.90;;;;;;5037015;28;20116;-72
2024/03/06 07:02:18;;;;;;;18.30;11.63;;;4.90;99.90;;;;;;5054447;28;20037;-72
2024/03/06 07:04:44;;;;;;;20.77;11.45;;;4.90;99.90;;;;;;5054806;28;20052;-74
2024/03/06 07:07:10;;;;;;;19.58;12.38;;;5.00;99.90;;;;;;5054946;28;20037;-72
2024/03/06 07:09:35;;;;;;;20.33;11.48;;;5.00;99.90;;;;;;5036610;28;20101;-72
2024/03/06 07:12:01;;;;;;;18.13;10.57;;;5.00;99.90;;;;;;5054314;28;20033;-72
2024/03/06 07:14:27;;;;;;;21.90;12.18;;;5.00;99.90;;;;;;5036845;28;20059;-73
2024/03/06 07:16:52;;;;;;;20.65;13.00;;;5.00;99.90;;;;;;5036756;28;20040;-72
2024/03/06 07:19:18;;;;;;;19.38;11.60;;;5.00;99.90;;;;;;5036250;28;20048;-72
2024/03/06 07:21:44;;;;;;;19.95;11.80;;;5.00;99.90;;;;;;5036269;28;20044;-72
2024/03/06 07:24:09;;;;;;;16.98;11.27;;;5.10;99.90;;;;;;5053897;28;20045;-72
2024/03/06 07:26:35;;;;;;;20.83;12.10;;;5.10;99.90;;;;;;5036369;28;20047;-72
2024/03/06 07:29:01;;;;;;;19.45;10.90;;;5.00;99.90;;;;;;5053979;28;20036;-72
2024/03/06 07:31:27;;;;;;;22.30;11.63;;;5.10;99.90;;;;;;5053983;28;20075;-72
2024/03/06 07:33:52;;;;;;;20.52;11.88;;;5.10;99.90;;;;;;5054162;28;20457;-71
2024/03/06 07:36:19;;;;;;;22.17;12.52;;;5.10;99.90;;;;;;5054317;28;20412;-72
2024/03/06 07:38:45;;;;;;;20.70;11.63;;;5.10;99.90;;;;;;5035650;28;20099;-72
2024/03/06 07:41:11;;;;;;;19.88;11.63;;;5.10;99.90;;;;;;5035973;28;20033;-72
2024/03/06 07:43:38;;;;;;;22.90;11.48;;;5.10;99.90;;;;;;5054146;28;20568;-71
2024/03/06 07:46:10;;;;;;;19.92;12.75;;;5.10;99.90;;;;;;5036153;28;20048;-72
2024/03/06 07:48:36;;;;;;;26.80;12.25;;;5.10;99.90;;;;;;5036055;28;20040;-72
2024/03/06 07:51:02;;;;;;;20.30;12.45;;;5.10;99.90;;;;;;5052741;28;20032;-72
2024/03/06 07:53:28;;;;;;;16.13;10.88;;;5.10;99.90;;;;;;5036175;28;20550;-73
2024/03/06 07:55:54;;;;;;;24.10;12.68;;;5.20;99.90;;;;;;5036422;28;20129;-72
2024/03/06 07:58:21;;;;;;;22.38;12.80;;;5.20;99.90;;;;;;5035789;28;20493;-72
2024/03/06 08:00:47;;;;;;;19.00;12.07;;;5.20;99.90;;;;;;5053899;28;20045;-72
2024/03/06 08:03:13;;;;;;;22.30;12.30;;;5.20;99.90;;;;;;5053342;28;20044;-72
2024/03/06 08:05:39;;;;;;;19.92;12.13;;;5.30;99.90;;;;;;5053937;28;20412;-72
2024/03/06 08:08:05;;;;;;;20.20;12.15;;;5.30;99.90;;;;;;5053268;28;20033;-71
2024/03/06 08:10:31;;;;;;;24.58;12.55;;;5.30;99.90;;;;;;5053262;28;20044;-73
2024/03/06 08:12:57;;;;;;;17.85;11.35;;;5.30;99.90;;;;;;5036839;28;20033;-72
2024/03/06 08:15:23;;;;;;;20.60;12.20;;;5.30;99.90;;;;;;5052809;28;20045;-72
2024/03/06 08:17:49;;;;;;;18.70;11.90;;;5.30;99.90;;;;;;5034559;28;20460;-72
2024/03/06 08:20:15;;;;;;;20.60;12.80;;;5.30;99.90;;;;;;5041811;28;20044;-72
2024/03/06 08:22:42;;;;;;;21.20;11.60;;;5.30;99.90;;;;;;5050372;28;20128;-72
2024/03/06 08:25:09;;;;;;;20.02;12.43;;;5.40;99.90;;;;;;5053148;28;20048;-72
2024/03/06 08:27:37;;;;;;;19.95;13.20;;;5.40;99.90;;;;;;5052544;28;20045;-72
2024/03/06 08:30:04;;;;;;;22.75;13.05;;;5.40;99.90;;;;;;5034893;28;20072;-73
2024/03/06 08:32:35;;;;;;;19.92;12.75;;;5.40;99.90;;;;;;5034470;28;20076;-72
2024/03/06 08:35:11;;;;;;;22.13;11.70;;;5.40;99.90;;;;;;5052944;28;20404;-72
2024/03/06 08:37:42;;;;;;;23.95;12.02;;;5.40;99.90;;;;;;5051214;28;20117;-72
2024/03/06 08:40:14;;;;;;;22.38;13.02;;;5.50;99.90;;;;;;5054252;28;20110;-75
2024/03/06 08:42:50;;;;;;;20.80;12.32;;;5.50;99.90;;;;;;5034509;28;20044;-72
2024/03/06 08:45:17;;;;;;;19.55;12.38;;;5.50;99.90;;;;;;5052664;28;20045;-72
2024/03/06 08:47:44;;;;;;;18.50;11.98;;;5.60;99.90;;;;;;5035056;28;20044;-72
2024/03/06 08:50:10;;;;;;;21.70;12.95;;;5.60;99.90;;;;;;5052741;28;20083;-72
2024/03/06 08:52:36;;;;;;;31.98;13.95;;;5.60;99.90;;;;;;5052372;28;20049;-72
2024/03/06 08:55:06;;;;;;;22.98;13.13;;;5.60;99.90;;;;;;5034776;28;20040;-72
2024/03/06 08:57:35;;;;;;;20.30;12.98;;;5.70;99.90;;;;;;5052050;28;20040;-72
2024/03/06 09:00:02;;;;;;;22.10;13.20;;;5.70;99.90;;;;;;5052213;28;20108;-72
2024/03/06 09:02:27;;;;;;;24.25;14.95;;;5.80;99.90;;;;;;5034056;28;20056;-73
2024/03/06 09:04:53;;;;;;;29.63;14.40;;;5.80;99.90;;;;;;5052520;28;20040;-71
2024/03/06 09:07:23;;;;;;;22.38;14.63;;;5.80;99.90;;;;;;5034457;28;20049;-72
2024/03/06 09:09:51;;;;;;;27.92;16.08;;;5.80;99.90;;;;;;5034194;28;20045;-72
2024/03/06 09:12:17;;;;;;;24.40;14.40;;;5.80;99.90;;;;;;5034290;28;20037;-72
2024/03/06 09:14:44;;;;;;;24.65;14.60;;;6.00;99.90;;;;;;5052545;28;20040;-71
2024/03/06 09:17:10;;;;;;;26.77;15.63;;;6.00;99.90;;;;;;5034824;28;20045;-72
2024/03/06 09:19:36;;;;;;;27.90;16.77;;;6.00;99.90;;;;;;5034257;28;20091;-72
2024/03/06 09:22:02;;;;;;;26.38;17.15;;;6.00;99.90;;;;;;5034325;28;20041;-72
2024/03/06 09:24:28;;;;;;;25.05;15.48;;;6.20;99.90;;;;;;5052094;28;20123;-73
2024/03/06 09:26:54;;;;;;;27.40;15.73;;;6.30;99.90;;;;;;5052046;28;20102;-73
2024/03/06 09:29:21;;;;;;;26.02;15.45;;;6.30;99.90;;;;;;5034142;28;20029;-75
2024/03/06 09:31:48;;;;;;;26.38;15.68;;;6.30;99.90;;;;;;5033256;28;20060;-72
2024/03/06 09:34:14;;;;;;;26.40;14.13;;;6.40;99.90;;;;;;5033825;28;20419;-72
2024/03/06 09:36:44;;;;;;;26.98;15.45;;;6.30;99.90;;;;;;5051127;28;20037;-72
2024/03/06 09:39:11;;;;;;;26.60;14.07;;;6.30;99.90;;;;;;5051342;28;20404;-72
2024/03/06 09:41:39;;;;;;;25.13;14.68;;;6.30;99.90;;;;;;5051070;28;20041;-72
2024/03/06 09:44:05;;;;;;;26.65;15.27;;;6.30;99.90;;;;;;5051467;28;20036;-73
2024/03/06 09:46:30;;;;;;;24.38;13.50;;;6.30;99.90;;;;;;5051300;28;20127;-72
2024/03/06 09:48:56;;;;;;;27.08;14.40;;;6.30;99.90;;;;;;5050954;28;20055;-72
2024/03/06 09:51:22;;;;;;;26.08;14.20;;;6.30;99.90;;;;;;5050676;28;20159;-72
2024/03/06 09:53:51;;;;;;;24.05;14.40;;;6.40;99.90;;;;;;5051044;28;20400;-72
2024/03/06 09:56:19;;;;;;;26.40;14.32;;;6.40;99.90;;;;;;5033264;28;20515;-72
2024/03/06 09:58:45;;;;;;;23.08;14.75;;;6.50;99.90;;;;;;5050955;28;20036;-72
2024/03/06 10:01:13;;;;;;;25.13;13.57;;;6.50;99.90;;;;;;5051460;28;20111;-72
2024/03/06 10:03:40;;;;;;;26.52;12.75;;;6.40;99.90;;;;;;5051629;28;20040;-74
2024/03/06 10:06:07;;;;;;;27.17;15.02;;;6.50;99.90;;;;;;5017311;28;20102;-77
2024/03/06 10:08:33;;;;;;;24.83;13.07;;;6.60;99.90;;;;;;5033460;28;20033;-73
2024/03/06 10:10:59;;;;;;;26.38;15.80;;;6.60;99.90;;;;;;5051158;28;20095;-74
2024/03/06 10:13:25;;;;;;;22.42;13.63;;;6.70;99.90;;;;;;5033250;28;20041;-75
2024/03/06 10:15:59;;;;;;;24.65;13.07;;;6.70;99.90;;;;;;5051721;28;20068;-76
2024/03/06 10:18:27;;;;;;;26.30;13.25;;;6.80;99.90;;;;;;5033628;28;20037;-73
2024/03/06 10:20:53;;;;;;;26.85;14.63;;;6.80;99.90;;;;;;5051552;28;20085;-73
2024/03/06 10:23:19;;;;;;;22.83;14.13;;;6.80;99.90;;;;;;5051421;28;20060;-73
2024/03/06 10:25:50;;;;;;;27.17;14.20;;;6.80;99.90;;;;;;5051577;28;20045;-74
2024/03/06 10:28:17;;;;;;;26.50;14.98;;;6.80;99.90;;;;;;5052152;28;20044;-73
2024/03/06 10:30:43;;;;;;;26.25;13.95;;;6.80;99.90;;;;;;5051799;28;20037;-73
2024/03/06 10:33:09;;;;;;;22.55;15.32;;;6.90;99.90;;;;;;5051067;28;20037;-74
2024/03/06 10:35:39;;;;;;;25.83;15.02;;;6.90;99.90;;;;;;5034042;28;20049;-75
2024/03/06 10:38:06;;;;;;;26.33;15.00;;;6.90;99.90;;;;;;5052068;28;20083;-73
2024/03/06 10:40:36;;;;;;;25.20;13.98;;;7.00;99.90;;;;;;5051300;28;20528;-73
2024/03/06 10:43:05;;;;;;;29.58;14.85;;;7.00;99.90;;;;;;5051033;28;20040;-73
2024/03/06 10:45:50;;;;;;;26.95;14.65;;;7.10;99.90;;;;;;5033195;28;20048;-72
2024/03/06 10:48:17;;;;;;;27.23;15.50;;;7.20;99.90;;;;;;5051007;28;20049;-73
2024/03/06 10:50:44;;;;;;;27.20;15.70;;;7.30;99.90;;;;;;5051201;28;20041;-73
2024/03/06 10:53:11;;;;;;;22.08;14.13;;;7.40;99.90;;;;;;5033057;28;20048;-73
2024/03/06 10:55:37;;;;;;;27.13;15.52;;;7.50;99.90;;;;;;5033428;28;20428;-73
2024/03/06 10:58:09;;;;;;;30.42;16.48;;;7.60;99.90;;;;;;5033080;28;20055;-73
2024/03/06 11:00:39;;;;;;;29.42;17.10;;;7.80;99.90;;;;;;5050803;28;20518;-72
2024/03/06 11:03:11;;;;;;;34.13;16.38;;;7.70;99.90;;;;;;5050758;28;20471;-73
2024/03/06 11:05:41;;;;;;;25.65;14.75;;;7.80;99.90;;;;;;5050983;28;20526;-74
2024/03/06 11:08:14;;;;;;;31.45;15.75;;;7.80;99.90;;;;;;5058720;22;20109;-71
2024/03/06 11:10:43;;;;;;;28.00;15.70;;;7.80;99.90;;;;;;5091024;28;20036;-71
2024/03/06 11:13:20;;;;;;;24.13;15.57;;;7.80;99.90;;;;;;5090748;28;20036;-71
2024/03/06 11:15:47;;;;;;;27.55;15.35;;;7.90;99.90;;;;;;5091243;28;20044;-71
2024/03/06 11:18:28;;;;;;;32.50;17.77;;;7.80;99.90;;;;;;5090917;28;20071;-70
2024/03/06 11:21:14;;;;;;;28.88;17.63;;;7.80;99.90;;;;;;5090422;28;20497;-71
2024/03/06 11:24:17;;;;;;;32.88;16.45;;;7.90;99.90;;;;;;5069488;28;20059;-69
2024/03/06 11:26:47;;;;;;;37.85;18.42;;;8.00;99.90;;;;;;5094602;28;20084;-70
2024/03/06 11:29:16;;;;;;;28.67;15.43;;;8.00;99.90;;;;;;5094573;28;20069;-70
2024/03/06 11:32:03;;;;;;;33.90;16.95;;;8.10;99.90;;;;;;5090780;28;20384;-70
2024/03/06 11:34:33;;;;;;;32.55;18.30;;;8.20;99.90;;;;;;5083189;28;20518;-70
2024/03/06 11:36:59;;;;;;;31.33;18.05;;;8.20;99.90;;;;;;5082972;28;20059;-70
2024/03/06 11:39:29;;;;;;;30.45;17.75;;;8.10;99.90;;;;;;5084365;28;20054;-70
2024/03/06 11:41:54;;;;;;;34.22;19.33;;;8.00;99.90;;;;;;5084144;28;20036;-69
2024/03/06 11:44:23;;;;;;;34.63;20.10;;;8.00;99.90;;;;;;5091580;28;20036;-69
2024/03/06 11:46:53;;;;;;;31.92;20.00;;;8.00;99.90;;;;;;5094529;28;20072;-70
2024/03/06 11:49:24;;;;;;;39.22;21.65;;;8.00;99.90;;;;;;5099914;28;20039;-69
2024/03/06 11:51:53;;;;;;;34.65;20.38;;;8.00;99.90;;;;;;5114305;28;20509;-69
2024/03/06 11:54:23;;;;;;;38.35;21.73;;;8.00;99.90;;;;;;5113714;28;20551;-69
2024/03/06 11:56:50;;;;;;;32.83;19.50;;;8.00;99.90;;;;;;5114870;28;20126;-69
2024/03/06 11:59:17;;;;;;;36.03;20.60;;;8.00;99.90;;;;;;5103704;28;20093;-69
2024/03/06 12:01:42;;;;;;;34.83;19.63;;;8.10;99.90;;;;;;5082871;28;20448;-69
2024/03/06 12:04:08;;;;;;;36.55;19.80;;;8.10;99.90;;;;;;5082708;28;20093;-69
2024/03/06 12:06:34;;;;;;;38.55;19.98;;;8.10;99.90;;;;;;5073713;28;20484;-69
2024/03/06 12:08:59;;;;;;;32.00;20.15;;;8.20;99.90;;;;;;5071921;28;20041;-69
2024/03/06 12:11:25;;;;;;;33.08;20.55;;;8.20;99.90;;;;;;5076238;28;20040;-69
2024/03/06 12:13:51;;;;;;;35.22;19.27;;;8.30;99.90;;;;;;5086713;28;20036;-69
2024/03/06 12:16:17;;;;;;;32.88;19.63;;;8.30;99.90;;;;;;5093796;28;20044;-69
2024/03/06 12:18:43;;;;;;;33.72;20.58;;;8.40;99.90;;;;;;5092342;28;20036;-69
2024/03/06 12:21:10;;;;;;;31.30;18.45;;;8.40;99.90;;;;;;5091947;28;20052;-70
2024/03/06 12:23:36;;;;;;;35.92;19.00;;;8.60;99.90;;;;;;5093852;28;20032;-69
2024/03/06 12:26:07;;;;;;;29.23;18.15;;;8.50;99.90;;;;;;5093678;28;20115;-70
2024/03/06 12:28:34;;;;;;;32.58;19.13;;;8.60;99.90;;;;;;5093337;28;20518;-69
2024/03/06 12:31:05;;;;;;;33.15;18.95;;;8.50;99.90;;;;;;5091706;28;20082;-70
2024/03/06 12:33:32;;;;;;;29.63;18.25;;;8.50;99.90;;;;;;5093330;28;20048;-70
2024/03/06 12:36:05;;;;;;;31.42;17.88;;;8.50;99.90;;;;;;5093283;28;20036;-69
2024/03/06 12:38:30;;;;;;;30.98;17.75;;;8.50;99.90;;;;;;5093050;28;20583;-70
2024/03/06 12:40:57;;;;;;;32.70;19.33;;;8.50;99.90;;;;;;5092977;28;20043;-72